sensor_id;sensor_type;location;lat;lon;timestamp;temperature;humidity
30825;DHT22;17550;45.486;12.222;2023-04-01T00:02:11;11.20;99.90
30825;DHT22;17550;45.486;12.222;2023-04-01T00:04:36;11.20;99.90
30825;DHT22;17550;45.486;12.222;2023-04-01T00:07:02;11.20;99.90
30825;DHT22;17550;45.486;12.222;2023-04-01T00:09:28;10.90;99.90
30825;DHT22;17550;45.486;12.222;2023-04-01T00:11:53;10.70;99.90
30825;DHT22;17550;45.486;12.222;2023-04-01T00:14:19;10.80;99.90
30825;DHT22;17550;45.486;12.222;2023-04-01T00:16:45;10.70;99.90
30825;DHT22;17550;45.486;12.222;2023-04-01T00:19:11;10.80;99.90
30825;DHT22;17550;45.486;12.222;2023-04-01T00:21:36;10.60;99.90
30825;DHT22;17550;45.486;12.222;2023-04-01T00:24:02;10.60;99.90
30825;DHT22;17550;45.486;12.222;2023-04-01T00:26:28;10.60;99.90
30825;DHT22;17550;45.486;12.222;2023-04-01T00:28:54;10.60;99.90
30825;DHT22;17550;45.486;12.222;2023-04-01T00:31:19;10.60;99.90
30825;DHT22;17550;45.486;12.222;2023-04-01T00:33:48;10.60;99.90
30825;DHT22;17550;45.486;12.222;2023-04-01T00:36:16;10.70;99.90
30825;DHT22;17550;45.486;12.222;2023-04-01T00:38:43;10.70;99.90
30825;DHT22;17550;45.486;12.222;2023-04-01T00:41:10;10.70;99.90
30825;DHT22;17550;45.486;12.222;2023-04-01T00:43:40;10.70;99.90
30825;DHT22;17550;45.486;12.222;2023-04-01T00:46:06;10.60;99.90
30825;DHT22;17550;45.486;12.222;2023-04-01T00:48:38;10.60;99.90
30825;DHT22;17550;45.486;12.222;2023-04-01T00:51:11;10.60;99.90
30825;DHT22;17550;45.486;12.222;2023-04-01T00:53:43;10.60;99.90
30825;DHT22;17550;45.486;12.222;2023-04-01T00:58:46;10.70;99.90
30825;DHT22;17550;45.486;12.222;2023-04-01T01:01:14;10.60;99.90
30825;DHT22;17550;45.486;12.222;2023-04-01T01:03:40;10.60;99.90
30825;DHT22;17550;45.486;12.222;2023-04-01T01:06:44;10.50;99.90
30825;DHT22;17550;45.486;12.222;2023-04-01T01:09:22;10.30;99.90
30825;DHT22;17550;45.486;12.222;2023-04-01T01:14:40;10.00;99.90
30825;DHT22;17550;45.486;12.222;2023-04-01T01:17:23;9.90;99.90
30825;DHT22;17550;45.486;12.222;2023-04-01T01:31:26;9.80;99.90
30825;DHT22;17550;45.486;12.222;2023-04-01T01:34:14;9.80;99.90
30825;DHT22;17550;45.486;12.222;2023-04-01T01:36:44;9.80;99.90
30825;DHT22;17550;45.486;12.222;2023-04-01T01:39:12;9.80;99.90
30825;DHT22;17550;45.486;12.222;2023-04-01T01:41:41;9.70;99.90
30825;DHT22;17550;45.486;12.222;2023-04-01T01:44:09;9.70;99.90
30825;DHT22;17550;45.486;12.222;2023-04-01T01:46:38;9.70;99.90
30825;DHT22;17550;45.486;12.222;2023-04-01T01:49:06;9.70;99.90
30825;DHT22;17550;45.486;12.222;2023-04-01T01:51:33;9.80;99.90
30825;DHT22;17550;45.486;12.222;2023-04-01T01:53:59;9.80;99.90
30825;DHT22;17550;45.486;12.222;2023-04-01T01:56:27;9.80;99.90
30825;DHT22;17550;45.486;12.222;2023-04-01T01:59:06;9.80;99.90
30825;DHT22;17550;45.486;12.222;2023-04-01T02:01:37;9.80;99.90
30825;DHT22;17550;45.486;12.222;2023-04-01T02:04:04;9.70;99.90
30825;DHT22;17550;45.486;12.222;2023-04-01T02:06:33;9.70;99.90
30825;DHT22;17550;45.486;12.222;2023-04-01T02:09:02;9.60;99.90
30825;DHT22;17550;45.486;12.222;2023-04-01T02:14:22;9.60;99.90
30825;DHT22;17550;45.486;12.222;2023-04-01T02:19:27;9.70;99.90
30825;DHT22;17550;45.486;12.222;2023-04-01T02:22:00;9.70;99.90
30825;DHT22;17550;45.486;12.222;2023-04-01T02:24:30;9.80;99.90
30825;DHT22;17550;45.486;12.222;2023-04-01T02:26:56;9.90;99.90
30825;DHT22;17550;45.486;12.222;2023-04-01T02:29:24;9.90;99.90
30825;DHT22;17550;45.486;12.222;2023-04-01T02:31:51;10.00;99.90
30825;DHT22;17550;45.486;12.222;2023-04-01T02:34:18;10.10;99.90
30825;DHT22;17550;45.486;12.222;2023-04-01T02:36:44;10.00;99.90
30825;DHT22;17550;45.486;12.222;2023-04-01T02:39:10;10.00;99.90
30825;DHT22;17550;45.486;12.222;2023-04-01T02:41:43;9.90;99.90
30825;DHT22;17550;45.486;12.222;2023-04-01T02:44:11;9.80;99.90
30825;DHT22;17550;45.486;12.222;2023-04-01T02:46:37;9.80;99.90
30825;DHT22;17550;45.486;12.222;2023-04-01T02:49:03;9.90;99.90
30825;DHT22;17550;45.486;12.222;2023-04-01T02:51:30;9.80;99.90
30825;DHT22;17550;45.486;12.222;2023-04-01T02:53:56;9.80;99.90
30825;DHT22;17550;45.486;12.222;2023-04-01T02:56:21;9.80;99.90
30825;DHT22;17550;45.486;12.222;2023-04-01T02:58:47;9.80;99.90
30825;DHT22;17550;45.486;12.222;2023-04-01T03:01:13;9.70;99.90
30825;DHT22;17550;45.486;12.222;2023-04-01T03:03:39;9.80;99.90
30825;DHT22;17550;45.486;12.222;2023-04-01T03:06:10;9.80;99.90
30825;DHT22;17550;45.486;12.222;2023-04-01T03:08:36;9.90;99.90
30825;DHT22;17550;45.486;12.222;2023-04-01T03:11:02;9.90;99.90
30825;DHT22;17550;45.486;12.222;2023-04-01T03:13:29;10.00;99.90
30825;DHT22;17550;45.486;12.222;2023-04-01T03:15:55;10.00;99.90
30825;DHT22;17550;45.486;12.222;2023-04-01T03:18:20;10.00;99.90
30825;DHT22;17550;45.486;12.222;2023-04-01T03:20:46;10.00;99.90
30825;DHT22;17550;45.486;12.222;2023-04-01T03:23:13;10.00;99.90
30825;DHT22;17550;45.486;12.222;2023-04-01T03:25:38;9.90;99.90
30825;DHT22;17550;45.486;12.222;2023-04-01T03:28:04;9.90;99.90
30825;DHT22;17550;45.486;12.222;2023-04-01T03:30:30;9.90;99.90
30825;DHT22;17550;45.486;12.222;2023-04-01T03:32:57;9.80;99.90
30825;DHT22;17550;45.486;12.222;2023-04-01T03:35:23;9.80;99.90
30825;DHT22;17550;45.486;12.222;2023-04-01T03:37:51;9.70;99.90
30825;DHT22;17550;45.486;12.222;2023-04-01T03:40:17;9.80;99.90
30825;DHT22;17550;45.486;12.222;2023-04-01T03:42:43;9.70;99.90
30825;DHT22;17550;45.486;12.222;2023-04-01T03:45:09;9.70;99.90
30825;DHT22;17550;45.486;12.222;2023-04-01T03:47:37;9.70;99.90
30825;DHT22;17550;45.486;12.222;2023-04-01T03:50:04;9.70;99.90
30825;DHT22;17550;45.486;12.222;2023-04-01T03:52:29;9.80;99.90
30825;DHT22;17550;45.486;12.222;2023-04-01T03:54:55;9.80;99.90
30825;DHT22;17550;45.486;12.222;2023-04-01T03:57:21;9.80;99.90
30825;DHT22;17550;45.486;12.222;2023-04-01T03:59:47;9.70;99.90
30825;DHT22;17550;45.486;12.222;2023-04-01T04:02:13;9.70;99.90
30825;DHT22;17550;45.486;12.222;2023-04-01T04:04:38;9.60;99.90
30825;DHT22;17550;45.486;12.222;2023-04-01T04:07:04;9.70;99.90
30825;DHT22;17550;45.486;12.222;2023-04-01T04:09:31;9.70;99.90
30825;DHT22;17550;45.486;12.222;2023-04-01T04:11:57;9.70;99.90
30825;DHT22;17550;45.486;12.222;2023-04-01T04:14:23;9.60;99.90
30825;DHT22;17550;45.486;12.222;2023-04-01T04:16:49;9.70;99.90
30825;DHT22;17550;45.486;12.222;2023-04-01T04:19:15;9.70;99.90
30825;DHT22;17550;45.486;12.222;2023-04-01T04:21:41;9.70;99.90
30825;DHT22;17550;45.486;12.222;2023-04-01T04:24:08;9.70;99.90
30825;DHT22;17550;45.486;12.222;2023-04-01T04:26:34;9.70;99.90
30825;DHT22;17550;45.486;12.222;2023-04-01T04:29:01;9.60;99.90
30825;DHT22;17550;45.486;12.222;2023-04-01T04:31:27;9.70;99.90
30825;DHT22;17550;45.486;12.222;2023-04-01T04:33:53;9.60;99.90
30825;DHT22;17550;45.486;12.222;2023-04-01T04:36:20;9.60;99.90
30825;DHT22;17550;45.486;12.222;2023-04-01T04:38:46;9.60;99.90
30825;DHT22;17550;45.486;12.222;2023-04-01T04:41:13;9.50;99.90
30825;DHT22;17550;45.486;12.222;2023-04-01T04:43:40;9.50;99.90
30825;DHT22;17550;45.486;12.222;2023-04-01T04:46:08;9.50;99.90
30825;DHT22;17550;45.486;12.222;2023-04-01T04:48:34;9.50;99.90
30825;DHT22;17550;45.486;12.222;2023-04-01T04:50:59;9.50;99.90
30825;DHT22;17550;45.486;12.222;2023-04-01T04:53:26;9.50;99.90
30825;DHT22;17550;45.486;12.222;2023-04-01T04:55:52;9.50;99.90
30825;DHT22;17550;45.486;12.222;2023-04-01T04:58:19;9.50;99.90
30825;DHT22;17550;45.486;12.222;2023-04-01T05:00:45;9.50;99.90
30825;DHT22;17550;45.486;12.222;2023-04-01T05:03:11;9.50;99.90
30825;DHT22;17550;45.486;12.222;2023-04-01T05:05:38;9.50;99.90
30825;DHT22;17550;45.486;12.222;2023-04-01T05:08:04;9.50;99.90
30825;DHT22;17550;45.486;12.222;2023-04-01T05:10:30;9.50;99.90
30825;DHT22;17550;45.486;12.222;2023-04-01T05:12:57;9.60;99.90
30825;DHT22;17550;45.486;12.222;2023-04-01T05:15:23;9.70;99.90
30825;DHT22;17550;45.486;12.222;2023-04-01T05:17:50;9.70;99.90
30825;DHT22;17550;45.486;12.222;2023-04-01T05:20:16;9.70;99.90
30825;DHT22;17550;45.486;12.222;2023-04-01T05:22:42;9.80;99.90
30825;DHT22;17550;45.486;12.222;2023-04-01T05:25:08;9.90;99.90
30825;DHT22;17550;45.486;12.222;2023-04-01T05:27:34;10.00;99.90
30825;DHT22;17550;45.486;12.222;2023-04-01T05:30:00;10.20;99.90
30825;DHT22;17550;45.486;12.222;2023-04-01T05:32:26;10.20;99.90
30825;DHT22;17550;45.486;12.222;2023-04-01T05:34:53;10.40;99.90
30825;DHT22;17550;45.486;12.222;2023-04-01T05:37:19;10.60;99.90
30825;DHT22;17550;45.486;12.222;2023-04-01T05:39:46;10.70;99.90
30825;DHT22;17550;45.486;12.222;2023-04-01T05:42:12;10.80;99.90
30825;DHT22;17550;45.486;12.222;2023-04-01T05:44:37;11.00;99.90
30825;DHT22;17550;45.486;12.222;2023-04-01T05:47:03;11.30;99.90
30825;DHT22;17550;45.486;12.222;2023-04-01T05:49:33;11.40;99.90
30825;DHT22;17550;45.486;12.222;2023-04-01T05:51:58;11.60;99.90
30825;DHT22;17550;45.486;12.222;2023-04-01T05:54:24;11.70;99.90
30825;DHT22;17550;45.486;12.222;2023-04-01T05:56:50;11.80;99.90
30825;DHT22;17550;45.486;12.222;2023-04-01T05:59:16;11.80;99.90
30825;DHT22;17550;45.486;12.222;2023-04-01T06:01:41;12.00;99.90
30825;DHT22;17550;45.486;12.222;2023-04-01T06:04:12;12.00;99.90
30825;DHT22;17550;45.486;12.222;2023-04-01T06:06:39;12.20;99.90
30825;DHT22;17550;45.486;12.222;2023-04-01T06:22:42;12.80;99.90
30825;DHT22;17550;45.486;12.222;2023-04-01T06:25:23;12.90;99.90
30825;DHT22;17550;45.486;12.222;2023-04-01T06:30:34;13.20;99.90
30825;DHT22;17550;45.486;12.222;2023-04-01T06:46:54;13.50;99.90
30825;DHT22;17550;45.486;12.222;2023-04-01T06:52:17;13.60;99.90
30825;DHT22;17550;45.486;12.222;2023-04-01T06:54:49;13.70;99.90
30825;DHT22;17550;45.486;12.222;2023-04-01T06:59:45;13.60;99.90
30825;DHT22;17550;45.486;12.222;2023-04-01T07:02:34;13.60;99.90
30825;DHT22;17550;45.486;12.222;2023-04-01T07:05:00;13.70;99.90
30825;DHT22;17550;45.486;12.222;2023-04-01T07:07:43;13.70;99.90
30825;DHT22;17550;45.486;12.222;2023-04-01T07:10:17;13.60;99.90
30825;DHT22;17550;45.486;12.222;2023-04-01T07:12:47;13.30;99.90
30825;DHT22;17550;45.486;12.222;2023-04-01T07:15:33;13.30;99.90
30825;DHT22;17550;45.486;12.222;2023-04-01T07:18:15;13.50;99.90
30825;DHT22;17550;45.486;12.222;2023-04-01T07:20:42;13.60;99.90
30825;DHT22;17550;45.486;12.222;2023-04-01T07:23:22;13.90;99.90
30825;DHT22;17550;45.486;12.222;2023-04-01T07:25:56;14.00;99.90
30825;DHT22;17550;45.486;12.222;2023-04-01T07:28:24;14.10;99.90
30825;DHT22;17550;45.486;12.222;2023-04-01T07:34:33;14.40;99.90
30825;DHT22;17550;45.486;12.222;2023-04-01T07:39:48;14.60;99.90
30825;DHT22;17550;45.486;12.222;2023-04-01T07:45:19;14.70;99.90
30825;DHT22;17550;45.486;12.222;2023-04-01T08:09:45;15.50;99.90
30825;DHT22;17550;45.486;12.222;2023-04-01T08:15:18;15.70;99.90
30825;DHT22;17550;45.486;12.222;2023-04-01T08:20:52;16.00;99.90
30825;DHT22;17550;45.486;12.222;2023-04-01T08:26:10;15.30;99.90
30825;DHT22;17550;45.486;12.222;2023-04-01T08:28:43;15.40;99.90
30825;DHT22;17550;45.486;12.222;2023-04-01T08:31:37;15.60;99.90
30825;DHT22;17550;45.486;12.222;2023-04-01T08:34:18;15.80;99.90
30825;DHT22;17550;45.486;12.222;2023-04-01T08:37:08;15.90;99.90
30825;DHT22;17550;45.486;12.222;2023-04-01T08:39:45;15.90;99.90
30825;DHT22;17550;45.486;12.222;2023-04-01T08:42:47;16.00;99.90
30825;DHT22;17550;45.486;12.222;2023-04-01T08:45:28;16.20;99.90
30825;DHT22;17550;45.486;12.222;2023-04-01T08:54:24;16.70;99.90
30825;DHT22;17550;45.486;12.222;2023-04-01T09:18:38;17.20;99.90
30825;DHT22;17550;45.486;12.222;2023-04-01T09:27:26;17.60;99.90
30825;DHT22;17550;45.486;12.222;2023-04-01T09:30:29;17.20;99.90
30825;DHT22;17550;45.486;12.222;2023-04-01T09:38:20;17.50;99.90
30825;DHT22;17550;45.486;12.222;2023-04-01T09:41:16;17.60;99.90
30825;DHT22;17550;45.486;12.222;2023-04-01T09:49:20;17.70;99.90
30825;DHT22;17550;45.486;12.222;2023-04-01T09:52:09;17.80;99.90
30825;DHT22;17550;45.486;12.222;2023-04-01T10:00:32;17.90;99.90
30825;DHT22;17550;45.486;12.222;2023-04-01T10:30:23;18.00;99.90
30825;DHT22;17550;45.486;12.222;2023-04-01T10:43:59;18.30;98.70
30825;DHT22;17550;45.486;12.222;2023-04-01T10:54:43;18.80;98.10
30825;DHT22;17550;45.486;12.222;2023-04-01T11:03:06;18.40;97.60
30825;DHT22;17550;45.486;12.222;2023-04-01T11:05:58;18.40;98.00
30825;DHT22;17550;45.486;12.222;2023-04-01T11:45:26;18.80;97.80
30825;DHT22;17550;45.486;12.222;2023-04-01T11:48:16;18.90;97.50
30825;DHT22;17550;45.486;12.222;2023-04-01T12:11:03;19.10;96.50
30825;DHT22;17550;45.486;12.222;2023-04-01T12:13:32;19.00;96.20
30825;DHT22;17550;45.486;12.222;2023-04-01T12:55:52;20.40;92.20
30825;DHT22;17550;45.486;12.222;2023-04-01T13:04:29;20.80;91.00
30825;DHT22;17550;45.486;12.222;2023-04-01T13:26:34;21.50;90.00
30825;DHT22;17550;45.486;12.222;2023-04-01T13:29:25;21.70;90.00
30825;DHT22;17550;45.486;12.222;2023-04-01T13:41:04;21.40;85.90
30825;DHT22;17550;45.486;12.222;2023-04-01T13:43:26;21.50;85.30
30825;DHT22;17550;45.486;12.222;2023-04-01T13:46:22;21.80;85.40
30825;DHT22;17550;45.486;12.222;2023-04-01T13:49:28;21.90;84.30
30825;DHT22;17550;45.486;12.222;2023-04-01T14:03:30;21.80;84.10
30825;DHT22;17550;45.486;12.222;2023-04-01T14:20:05;21.70;83.90
30825;DHT22;17550;45.486;12.222;2023-04-01T14:22:42;21.50;82.80
30825;DHT22;17550;45.486;12.222;2023-04-01T14:25:33;21.50;82.60
30825;DHT22;17550;45.486;12.222;2023-04-01T14:36:35;21.40;92.50
30825;DHT22;17550;45.486;12.222;2023-04-01T14:45:24;20.20;94.60
30825;DHT22;17550;45.486;12.222;2023-04-01T14:50:46;19.30;96.70
30825;DHT22;17550;45.486;12.222;2023-04-01T14:53:31;19.30;96.90
30825;DHT22;17550;45.486;12.222;2023-04-01T14:56:00;19.30;97.10
30825;DHT22;17550;45.486;12.222;2023-04-01T14:58:49;19.20;97.20
30825;DHT22;17550;45.486;12.222;2023-04-01T15:01:39;19.10;97.60
30825;DHT22;17550;45.486;12.222;2023-04-01T15:10:34;19.10;98.40
30825;DHT22;17550;45.486;12.222;2023-04-01T15:24:34;19.40;98.10
30825;DHT22;17550;45.486;12.222;2023-04-01T15:33:10;19.10;98.80
30825;DHT22;17550;45.486;12.222;2023-04-01T15:36:34;18.90;99.10
30825;DHT22;17550;45.486;12.222;2023-04-01T15:47:45;19.10;98.80
30825;DHT22;17550;45.486;12.222;2023-04-01T15:50:29;19.20;98.80
30825;DHT22;17550;45.486;12.222;2023-04-01T16:09:43;18.60;99.30
30825;DHT22;17550;45.486;12.222;2023-04-01T16:15:10;18.20;99.90
30825;DHT22;17550;45.486;12.222;2023-04-01T16:17:46;18.20;99.90
30825;DHT22;17550;45.486;12.222;2023-04-01T16:20:19;18.30;99.90
30825;DHT22;17550;45.486;12.222;2023-04-01T16:22:49;18.40;99.90
30825;DHT22;17550;45.486;12.222;2023-04-01T16:30:48;18.20;99.90
30825;DHT22;17550;45.486;12.222;2023-04-01T16:36:34;18.00;99.90
30825;DHT22;17550;45.486;12.222;2023-04-01T16:42:44;17.90;99.90
30825;DHT22;17550;45.486;12.222;2023-04-01T16:45:01;17.90;99.90
30825;DHT22;17550;45.486;12.222;2023-04-01T16:47:35;17.70;99.90
30825;DHT22;17550;45.486;12.222;2023-04-01T16:55:20;17.30;99.90
30825;DHT22;17550;45.486;12.222;2023-04-01T16:57:52;17.20;99.90
30825;DHT22;17550;45.486;12.222;2023-04-01T17:03:32;17.10;99.90
30825;DHT22;17550;45.486;12.222;2023-04-01T17:11:34;16.70;99.90
30825;DHT22;17550;45.486;12.222;2023-04-01T17:22:25;16.20;99.90
30825;DHT22;17550;45.486;12.222;2023-04-01T17:25:08;16.00;99.90
30825;DHT22;17550;45.486;12.222;2023-04-01T17:49:57;15.20;99.90
30825;DHT22;17550;45.486;12.222;2023-04-01T17:52:29;15.20;99.90
30825;DHT22;17550;45.486;12.222;2023-04-01T18:01:14;14.90;99.90
30825;DHT22;17550;45.486;12.222;2023-04-01T18:06:19;14.70;99.90
30825;DHT22;17550;45.486;12.222;2023-04-01T18:12:01;14.70;99.90
30825;DHT22;17550;45.486;12.222;2023-04-01T18:17:38;14.50;99.90
30825;DHT22;17550;45.486;12.222;2023-04-01T18:25:41;14.40;99.90
30825;DHT22;17550;45.486;12.222;2023-04-01T18:33:54;14.10;99.90
30825;DHT22;17550;45.486;12.222;2023-04-01T18:39:33;14.10;99.90
30825;DHT22;17550;45.486;12.222;2023-04-01T18:45:23;14.00;99.90
30825;DHT22;17550;45.486;12.222;2023-04-01T18:50:37;14.00;99.90
30825;DHT22;17550;45.486;12.222;2023-04-01T18:56:07;13.90;99.90
30825;DHT22;17550;45.486;12.222;2023-04-01T18:58:35;13.90;99.90
30825;DHT22;17550;45.486;12.222;2023-04-01T19:08:53;13.80;99.90
30825;DHT22;17550;45.486;12.222;2023-04-01T19:14:39;13.80;99.90
30825;DHT22;17550;45.486;12.222;2023-04-01T19:20:17;13.70;99.90
30825;DHT22;17550;45.486;12.222;2023-04-01T19:26:14;13.70;99.90
30825;DHT22;17550;45.486;12.222;2023-04-01T19:50:58;13.70;99.90
30825;DHT22;17550;45.486;12.222;2023-04-01T19:53:40;13.70;99.90
30825;DHT22;17550;45.486;12.222;2023-04-01T19:58:50;13.80;99.90
30825;DHT22;17550;45.486;12.222;2023-04-01T20:01:24;13.80;99.90
30825;DHT22;17550;45.486;12.222;2023-04-01T20:03:57;13.80;99.90
30825;DHT22;17550;45.486;12.222;2023-04-01T20:14:40;13.90;99.90
30825;DHT22;17550;45.486;12.222;2023-04-01T20:25:24;13.80;99.90
30825;DHT22;17550;45.486;12.222;2023-04-01T20:52:39;12.70;99.90
30825;DHT22;17550;45.486;12.222;2023-04-01T21:11:04;12.30;99.90
30825;DHT22;17550;45.486;12.222;2023-04-01T21:29:33;12.30;99.90
30825;DHT22;17550;45.486;12.222;2023-04-01T21:32:16;12.30;99.90
30825;DHT22;17550;45.486;12.222;2023-04-01T21:51:43;12.10;99.90
30825;DHT22;17550;45.486;12.222;2023-04-01T21:57:32;12.10;99.90
30825;DHT22;17550;45.486;12.222;2023-04-01T22:05:48;12.00;99.90
30825;DHT22;17550;45.486;12.222;2023-04-01T22:14:03;11.90;99.90
30825;DHT22;17550;45.486;12.222;2023-04-01T22:22:33;11.90;99.90
30825;DHT22;17550;45.486;12.222;2023-04-01T22:25:18;11.90;99.90
30825;DHT22;17550;45.486;12.222;2023-04-01T22:28:07;11.90;99.90
30825;DHT22;17550;45.486;12.222;2023-04-01T22:30:55;11.90;99.90
30825;DHT22;17550;45.486;12.222;2023-04-01T22:43:56;11.90;99.90
30825;DHT22;17550;45.486;12.222;2023-04-01T22:46:36;12.00;99.90
30825;DHT22;17550;45.486;12.222;2023-04-01T22:51:55;12.00;99.90
30825;DHT22;17550;45.486;12.222;2023-04-01T22:54:33;12.00;99.90
30825;DHT22;17550;45.486;12.222;2023-04-01T22:57:08;12.00;99.90
30825;DHT22;17550;45.486;12.222;2023-04-01T22:59:39;12.10;99.90
30825;DHT22;17550;45.486;12.222;2023-04-01T23:02:14;12.00;99.90
30825;DHT22;17550;45.486;12.222;2023-04-01T23:04:43;12.00;99.90
30825;DHT22;17550;45.486;12.222;2023-04-01T23:09:50;11.90;99.90
30825;DHT22;17550;45.486;12.222;2023-04-01T23:12:19;11.90;99.90
30825;DHT22;17550;45.486;12.222;2023-04-01T23:14:51;11.80;99.90
30825;DHT22;17550;45.486;12.222;2023-04-01T23:17:41;11.80;99.90
30825;DHT22;17550;45.486;12.222;2023-04-01T23:20:26;11.70;99.90
30825;DHT22;17550;45.486;12.222;2023-04-01T23:23:11;11.70;99.90
30825;DHT22;17550;45.486;12.222;2023-04-01T23:28:46;11.60;99.90
30825;DHT22;17550;45.486;12.222;2023-04-01T23:31:38;11.60;99.90
30825;DHT22;17550;45.486;12.222;2023-04-01T23:36:44;11.50;99.90
30825;DHT22;17550;45.486;12.222;2023-04-01T23:41:45;11.40;99.90
30825;DHT22;17550;45.486;12.222;2023-04-01T23:44:13;11.40;99.90
30825;DHT22;17550;45.486;12.222;2023-04-01T23:46:40;11.40;99.90
30825;DHT22;17550;45.486;12.222;2023-04-01T23:52:02;11.30;99.90
30825;DHT22;17550;45.486;12.222;2023-04-01T23:57:43;11.30;99.90
